Time;durP1;ratioP1;P1;durP2;ratioP2;P2;SDS_P1;SDS_P2;PMS_P1;PMS_P2;Temp;Humidity;BMP_temperature;BMP_pressure;BME280_temperature;BME280_humidity;BME280_pressure;Samples;Min_cycle;Max_cycle;Signal;HPM_P1;HPM_P2
2022/06/02 00:00:45;;;;;;;15.30;13.80;;;10.00;99.90;;;;;;6062716;23;20379;-89
2022/06/02 00:03:16;;;;;;;15.47;13.97;;;9.90;99.90;;;;;;6160632;23;20391;-89
2022/06/02 00:06:23;;;;;;;15.67;14.27;;;9.80;99.90;;;;;;6160649;23;20410;-89
2022/06/02 00:09:01;;;;;;;14.33;12.97;;;10.60;99.90;;;;;;6162029;23;20713;-89
2022/06/02 00:11:54;;;;;;;14.77;13.57;;;9.30;99.90;;;;;;6161041;23;20399;-90
2022/06/02 00:14:30;;;;;;;13.33;11.93;;;10.10;99.90;;;;;;6163255;23;20949;-89
2022/06/02 00:17:10;;;;;;;15.37;14.07;;;9.60;99.90;;;;;;6163822;23;20442;-88
2022/06/02 00:19:54;;;;;;;18.57;14.20;;;10.70;99.90;;;;;;6168576;23;20387;-90
2022/06/02 00:23:06;;;;;;;43.47;15.50;;;9.40;99.90;;;;;;6160186;23;20778;-90
2022/06/02 00:26:19;;;;;;;15.80;14.27;;;9.80;99.90;;;;;;6063096;23;20430;-90
2022/06/02 00:29:23;;;;;;;12.50;11.50;;;10.20;99.90;;;;;;6168543;23;20532;-90
2022/06/02 00:33:03;;;;;;;19.33;15.37;;;9.40;99.90;;;;;;6213602;23;20395;-89
2022/06/02 00:36:36;;;;;;;16.10;14.13;;;9.40;99.90;;;;;;6211555;23;20474;-89
2022/06/02 00:40:00;;;;;;;64.27;16.10;;;9.10;99.90;;;;;;6212954;23;20390;-90
2022/06/02 00:43:11;;;;;;;15.63;13.93;;;9.20;99.90;;;;;;6211897;23;20441;-89
2022/06/02 00:45:41;;;;;;;14.50;13.07;;;9.30;99.90;;;;;;6213365;23;20374;-90
2022/06/02 00:48:38;;;;;;;15.73;14.23;;;9.20;99.90;;;;;;6185592;23;20409;-89
2022/06/02 00:51:09;;;;;;;17.70;14.70;;;9.20;99.90;;;;;;6185098;23;20394;-89
2022/06/02 01:00:34;;;;;;;23.23;14.53;;;9.50;99.90;;;;;;6213572;23;20421;-90
2022/06/02 01:03:21;;;;;;;16.17;13.70;;;9.40;99.90;;;;;;6090198;23;20393;-89
2022/06/02 01:06:23;;;;;;;16.80;15.30;;;9.00;99.90;;;;;;6066525;23;20921;-90
2022/06/02 01:09:15;;;;;;;54.07;16.20;;;9.40;99.90;;;;;;6169263;23;20394;-91
2022/06/02 01:12:15;;;;;;;36.77;15.13;;;9.40;99.90;;;;;;6184372;23;20394;-90
2022/06/02 01:15:14;;;;;;;52.10;15.07;;;9.60;99.90;;;;;;6213541;23;20870;-90
2022/06/02 01:18:01;;;;;;;18.10;15.10;;;9.50;99.90;;;;;;6184053;23;20430;-89
2022/06/02 01:20:52;;;;;;;19.60;15.27;;;9.70;99.90;;;;;;6186120;23;20397;-89
2022/06/02 01:23:44;;;;;;;15.83;13.73;;;9.40;99.90;;;;;;6185311;23;20391;-90
2022/06/02 01:26:09;;;;;;;34.70;14.13;;;9.30;99.90;;;;;;6202384;23;20387;-90
2022/06/02 01:28:55;;;;;;;23.90;15.03;;;9.10;99.90;;;;;;6185315;23;21040;-89
2022/06/02 01:31:40;;;;;;;17.50;15.80;;;9.00;99.90;;;;;;6183747;23;20155;-89
2022/06/02 01:34:27;;;;;;;46.27;17.40;;;8.90;99.90;;;;;;6185520;23;20699;-90
2022/06/02 01:37:11;;;;;;;32.10;15.97;;;9.20;99.90;;;;;;6183037;23;20442;-89
2022/06/02 01:39:48;;;;;;;21.20;15.20;;;9.50;99.90;;;;;;6185582;23;20860;-89
2022/06/02 01:42:38;;;;;;;28.73;16.30;;;9.40;99.90;;;;;;6211188;23;20359;-90
2022/06/02 01:45:09;;;;;;;35.57;14.00;;;9.40;99.90;;;;;;6185864;23;20398;-90
2022/06/02 01:47:42;;;;;;;17.43;15.40;;;9.20;99.90;;;;;;6182962;23;20448;-90
2022/06/02 01:50:30;;;;;;;202.57;22.33;;;9.00;99.90;;;;;;6186144;23;20481;-90
2022/06/02 01:53:25;;;;;;;284.97;24.33;;;9.60;99.90;;;;;;6183757;23;20835;-90
2022/06/02 01:56:28;;;;;;;41.87;16.30;;;9.40;99.90;;;;;;6185572;23;20491;-90
2022/06/02 01:59:19;;;;;;;57.40;15.23;;;9.50;99.90;;;;;;6184017;23;20736;-89
2022/06/02 02:02:00;;;;;;;62.63;17.17;;;9.00;99.90;;;;;;6187003;23;20414;-90
2022/06/02 02:05:24;;;;;;;131.80;17.77;;;9.20;99.90;;;;;;6185587;23;20399;-90
2022/06/02 02:08:52;;;;;;;63.57;16.47;;;9.00;99.90;;;;;;6211237;23;20452;-90
2022/06/02 02:11:44;;;;;;;74.03;17.87;;;8.90;99.90;;;;;;6213489;23;20540;-90
2022/06/02 02:14:35;;;;;;;31.33;16.50;;;9.20;99.90;;;;;;6184928;23;20405;-88
2022/06/02 02:17:30;;;;;;;81.30;18.33;;;8.90;99.90;;;;;;6186778;23;20462;-89
2022/06/02 02:20:04;;;;;;;74.27;18.20;;;9.00;99.90;;;;;;6164465;23;20401;-89
2022/06/02 02:22:41;;;;;;;29.80;17.20;;;9.40;99.90;;;;;;6213515;23;20861;-89
2022/06/02 02:25:49;;;;;;;25.17;17.70;;;9.80;99.90;;;;;;6179194;23;20409;-90
2022/06/02 02:28:55;;;;;;;64.63;16.20;;;9.00;99.90;;;;;;6212698;23;20429;-89
2022/06/02 02:31:49;;;;;;;79.33;17.90;;;8.80;99.90;;;;;;6209746;23;20421;-90
2022/06/02 02:34:27;;;;;;;82.13;15.60;;;8.90;99.90;;;;;;6186828;23;20772;-89
2022/06/02 02:37:33;;;;;;;92.80;16.27;;;9.20;99.90;;;;;;6186347;23;20434;-89
2022/06/02 02:40:17;;;;;;;61.63;16.90;;;9.30;99.90;;;;;;6184463;23;20390;-89
2022/06/02 02:42:53;;;;;;;23.03;14.70;;;8.70;99.90;;;;;;6188279;23;20383;-89
2022/06/02 02:45:38;;;;;;;25.80;16.40;;;8.80;99.90;;;;;;6185437;23;20385;-90
2022/06/02 02:48:37;;;;;;;33.50;16.67;;;8.70;99.90;;;;;;6215112;23;20377;-90
2022/06/02 02:51:10;;;;;;;30.97;15.50;;;9.00;99.90;;;;;;6165419;23;20422;-90
2022/06/02 02:54:02;;;;;;;30.13;16.63;;;8.60;99.90;;;;;;6186976;23;20448;-90
2022/06/02 02:57:11;;;;;;;22.57;16.50;;;8.60;99.90;;;;;;6211461;23;20456;-90
2022/06/02 03:00:18;;;;;;;31.43;16.97;;;8.60;99.90;;;;;;6211679;23;20383;-89
2022/06/02 03:02:58;;;;;;;57.60;18.33;;;8.60;99.90;;;;;;6188296;23;20410;-91
2022/06/02 03:05:37;;;;;;;23.13;17.40;;;8.60;99.90;;;;;;6184954;23;20394;-90
2022/06/02 03:08:29;;;;;;;21.50;17.77;;;8.40;99.90;;;;;;6213563;23;20401;-90
2022/06/02 03:11:09;;;;;;;36.07;18.87;;;9.50;99.90;;;;;;6211679;23;20374;-91
2022/06/02 03:14:03;;;;;;;21.50;18.20;;;8.40;99.90;;;;;;6186458;23;20370;-91
2022/06/02 03:16:32;;;;;;;25.13;19.43;;;8.50;99.90;;;;;;6208819;23;20437;-90
2022/06/02 03:19:10;;;;;;;21.20;18.40;;;8.60;99.90;;;;;;6186346;23;20472;-90
2022/06/02 03:21:57;;;;;;;30.37;16.63;;;8.90;99.90;;;;;;6186555;23;20383;-91
2022/06/02 03:24:44;;;;;;;26.97;16.77;;;8.70;99.90;;;;;;6177912;23;20476;-88
2022/06/02 03:27:09;;;;;;;32.17;16.60;;;8.50;99.90;;;;;;6191064;23;20378;-88
2022/06/02 03:30:17;;;;;;;61.90;16.60;;;8.50;99.90;;;;;;6216437;23;20421;-88
2022/06/02 03:33:14;;;;;;;52.07;15.80;;;8.50;99.90;;;;;;6213809;23;20708;-89
2022/06/02 03:36:47;;;;;;;32.23;16.90;;;8.60;99.90;;;;;;6211162;23;20890;-90
2022/06/02 03:39:40;;;;;;;75.73;17.90;;;8.70;99.90;;;;;;6216974;23;20386;-90
2022/06/02 03:42:18;;;;;;;25.30;15.20;;;8.30;99.90;;;;;;6187839;23;20378;-90
2022/06/02 03:44:56;;;;;;;24.53;15.10;;;;;;;;;;6188246;23;20462;-90
2022/06/02 03:47:32;;;;;;;25.30;16.20;;;;;;;;;;6185662;23;20382;-90
2022/06/02 03:50:25;;;;;;;37.87;17.00;;;;;;;;;;6210767;23;21011;-90
2022/06/02 03:53:30;;;;;;;20.80;16.87;;;;;;;;;;6212205;23;20382;-91
2022/06/02 03:56:29;;;;;;;33.17;19.70;;;;;;;;;;6210554;23;20430;-91
2022/06/02 03:58:59;;;;;;;70.60;17.93;;;;;;;;;;6213062;23;20375;-90
2022/06/02 04:01:27;;;;;;;47.07;18.17;;;;;;;;;;6211143;23;20444;-90
2022/06/02 04:03:57;;;;;;;23.87;16.07;;;;;;;;;;6212792;23;20378;-89
2022/06/02 04:06:27;;;;;;;26.67;17.80;;;;;;;;;;6210757;23;20387;-90
2022/06/02 04:09:04;;;;;;;21.00;16.50;;;;;;;;;;6186606;23;20382;-90
2022/06/02 04:14:31;;;;;;;23.60;18.00;;;;;;;;;;6214455;23;20645;-90
2022/06/02 04:17:05;;;;;;;27.57;15.80;;;;;;;;;;6184655;23;20426;-90
2022/06/02 04:22:23;;;;;;;38.47;15.73;;;;;;;;;;6213221;23;20375;-90
2022/06/02 04:25:01;;;;;;;31.60;16.40;;;;;;;;;;6179096;23;20383;-91
2022/06/02 04:27:37;;;;;;;64.70;18.30;;;;;;;;;;6213411;23;20375;-90
2022/06/02 04:30:16;;;;;;;47.50;16.73;;;;;;;;;;6184230;23;20441;-90
2022/06/02 04:33:02;;;;;;;50.37;16.57;;;;;;;;;;6213842;23;20366;-90
2022/06/02 04:35:56;;;;;;;109.40;17.60;;;;;;;;;;6184285;23;20401;-91
2022/06/02 04:39:04;;;;;;;37.67;17.37;;;;;;;;;;6212163;23;20409;-90
2022/06/02 04:42:01;;;;;;;27.93;16.00;;;;;;;;;;6210856;23;20390;-90
2022/06/02 04:45:08;;;;;;;24.33;15.47;;;;;;;;;;6210633;23;20398;-91
2022/06/02 04:47:45;;;;;;;27.20;16.83;;;;;;;;;;6187738;23;20746;-89
2022/06/02 04:50:19;;;;;;;49.63;18.43;;;;;;;;;;6185150;23;20404;-83
2022/06/02 04:53:17;;;;;;;34.47;17.60;;;;;;;;;;6185884;23;20390;-91
2022/06/02 04:56:02;;;;;;;18.50;14.77;;;;;;;;;;6118268;23;20757;-89
2022/06/02 04:58:47;;;;;;;18.70;16.70;;;;;;;;;;6188302;23;20402;-91
2022/06/02 05:01:31;;;;;;;26.67;17.40;;;;;;;;;;6184849;23;20390;-89
2022/06/02 05:04:09;;;;;;;92.00;18.47;;;;;;;;;;6185848;23;20457;-91
2022/06/02 05:06:41;;;;;;;38.40;16.10;;;;;;;;;;6184373;23;20489;-90
2022/06/02 05:09:14;;;;;;;16.87;14.70;;;;;;;;;;6187133;23;20390;-90
2022/06/02 05:12:06;;;;;;;22.00;16.27;;;;;;;;;;6185663;23;20391;-89
2022/06/02 05:14:43;;;;;;;17.90;16.10;;;;;;;;;;6139349;23;20383;-90
2022/06/02 05:17:09;;;;;;;54.77;17.93;;;;;;;;;;6185967;23;20433;-91
2022/06/02 05:19:41;;;;;;;22.00;15.27;;;;;;;;;;6184158;23;20390;-91
2022/06/02 05:22:16;;;;;;;18.63;16.83;;;;;;;;;;6214406;23;20367;-91
2022/06/02 05:25:01;;;;;;;19.30;16.63;;;;;;;;;;6176068;23;20389;-88
2022/06/02 05:27:49;;;;;;;31.13;16.00;;;;;;;;;;6215328;23;20418;-91
2022/06/02 05:30:36;;;;;;;16.03;13.80;;;;;;;;;;6220774;23;20424;-90
2022/06/02 05:33:30;;;;;;;18.57;16.80;;;;;;;;;;6220847;23;20394;-90
2022/06/02 05:36:35;;;;;;;15.60;14.07;;;;;;;;;;6219854;23;20405;-91
2022/06/02 05:39:44;;;;;;;16.13;14.57;;;;;;;;;;6219384;23;20405;-90
2022/06/02 05:43:08;;;;;;;15.57;14.07;;;;;;;;;;6221577;23;20382;-91
2022/06/02 05:46:13;;;;;;;15.73;14.40;;;;;;;;;;6221823;23;20489;-91
2022/06/02 05:48:53;;;;;;;16.57;15.20;;;;;;;;;;6223229;23;20402;-92
2022/06/02 05:52:07;;;;;;;16.03;14.73;;;;;;;;;;6223377;23;20881;-89
2022/06/02 05:55:08;;;;;;;15.80;14.50;;;;;;;;;;6224418;23;20444;-88
2022/06/02 05:57:55;;;;;;;19.30;17.40;;;;;;;;;;6221236;23;20438;-90
2022/06/02 06:01:16;;;;;;;18.30;16.40;;;;;;;;;;6216281;23;20386;-84
2022/06/02 06:04:20;;;;;;;16.50;15.10;;;;;;;;;;6094097;23;21096;-90
2022/06/02 06:07:35;;;;;;;17.70;16.13;;;;;;;;;;6214755;23;20519;-90
2022/06/02 06:10:34;;;;;;;17.67;16.17;;;;;;;;;;6216747;23;20394;-92
2022/06/02 06:13:19;;;;;;;18.80;17.20;;;;;;;;;;6194257;23;20382;-90
2022/06/02 06:16:14;;;;;;;20.17;18.47;;;;;;;;;;6221598;23;20390;-90
2022/06/02 06:19:25;;;;;;;18.77;16.80;;;;;;;;;;6223914;23;20437;-90
2022/06/02 06:22:11;;;;;;;21.00;19.30;;;;;;;;;;6228690;23;20382;-90
2022/06/02 06:25:03;;;;;;;20.97;18.97;;;;;;;;;;6197252;23;20444;-90
2022/06/02 06:27:58;;;;;;;19.73;18.13;;;;;;;;;;6231740;23;20442;-89
2022/06/02 06:30:43;;;;;;;19.03;17.23;;;;;;;;;;6204915;23;20449;-90
2022/06/02 06:33:48;;;;;;;20.20;18.30;;;;;;;;;;6226778;23;20397;-90
2022/06/02 06:36:56;;;;;;;21.60;19.37;;;;;;;;;;6221005;23;20448;-89
2022/06/02 06:39:44;;;;;;;21.93;19.97;;;;;;;;;;6213039;23;20409;-91
2022/06/02 06:42:50;;;;;;;19.93;18.43;;;;;;;;;;6208994;23;20436;-91
2022/06/02 06:46:00;;;;;;;19.17;17.67;;;20.80;99.90;;;;;;6204124;23;20393;-88
2022/06/02 06:49:10;;;;;;;19.90;17.97;;;20.80;99.90;;;;;;6210584;23;20477;-89
2022/06/02 06:52:17;;;;;;;22.83;21.00;;;21.70;99.90;;;;;;6212834;23;20390;-89
2022/06/02 06:55:33;;;;;;;21.07;19.30;;;22.40;99.90;;;;;;6209399;23;20382;-87
2022/06/02 06:59:16;;;;;;;19.97;18.40;;;21.90;99.90;;;;;;6211952;23;20508;-93
2022/06/02 07:02:40;;;;;;;21.27;19.67;;;;;;;;;;6219073;23;20738;-93
2022/06/02 07:05:51;;;;;;;19.97;18.47;;;;;;;;;;6214767;23;20602;-90
2022/06/02 07:08:55;;;;;;;19.37;17.63;;;;;;;;;;6217569;23;20401;-91
2022/06/02 07:14:43;;;;;;;18.97;17.57;;;;;;;;;;6213470;23;20471;-90
2022/06/02 07:17:16;;;;;;;17.97;16.73;;;;;;;;;;6186862;23;20429;-92
2022/06/02 07:20:15;;;;;;;16.03;14.90;;;25.30;99.90;;;;;;6188963;23;20457;-91
2022/06/02 07:23:01;;;;;;;14.57;13.57;;;;;;;;;;6212201;23;20410;-91
2022/06/02 07:26:09;;;;;;;14.90;13.77;;;;;;;;;;6207088;23;20935;-92
2022/06/02 07:29:19;;;;;;;13.20;12.50;;;;;;;;;;6216986;23;20422;-93
2022/06/02 07:32:20;;;;;;;13.00;12.10;;;;;;;;;;6173810;23;20400;-91
2022/06/02 07:35:06;;;;;;;13.20;12.40;;;;;;;;;;6218927;23;20734;-90
2022/06/02 07:38:12;;;;;;;12.67;11.73;;;;;;;;;;6219615;23;20554;-88
2022/06/02 07:40:58;;;;;;;10.97;10.47;;;;;;;;;;6217333;23;20390;-86
2022/06/02 07:44:00;;;;;;;12.17;11.17;;;;;;;;;;6214949;23;20739;-87
2022/06/02 07:46:58;;;;;;;11.23;10.63;;;27.20;74.00;;;;;;6220848;23;20532;-86
2022/06/02 07:50:02;;;;;;;11.00;10.33;;;27.70;68.90;;;;;;6198521;23;20529;-88
2022/06/02 07:52:30;;;;;;;9.53;9.13;;;27.50;69.80;;;;;;6221751;23;20385;-86
2022/06/02 07:55:06;;;;;;;9.70;9.20;;;;;;;;;;6213286;23;20387;-87
2022/06/02 07:57:56;;;;;;;7.40;7.10;;;;;;;;;;6211354;23;20442;-88
2022/06/02 08:00:25;;;;;;;7.23;7.03;;;;;;;;;;6215833;23;20355;-86
2022/06/02 08:03:05;;;;;;;8.53;8.17;;;;;;;;;;6211349;23;20385;-87
2022/06/02 08:06:15;;;;;;;8.90;8.60;;;28.10;53.30;;;;;;6215209;23;20421;-88
2022/06/02 08:09:01;;;;;;;7.97;7.60;;;29.10;56.80;;;;;;6220460;23;20398;-87
2022/06/02 08:12:20;;;;;;;9.60;9.03;;;28.40;56.30;;;;;;6216069;23;20394;-88
2022/06/02 08:15:25;;;;;;;7.77;7.57;;;29.20;63.70;;;;;;6189278;23;20412;-88
2022/06/02 08:18:14;;;;;;;7.67;7.17;;;;;;;;;;6211050;23;20438;-88
2022/06/02 08:21:15;;;;;;;7.30;7.00;;;;;;;;;;6216834;23;20466;-88
2022/06/02 08:24:02;;;;;;;7.60;7.30;;;;;;;;;;6184821;23;20540;-85
2022/06/02 08:27:09;;;;;;;5.87;5.67;;;;;;;;;;6217303;23;20477;-91
2022/06/02 08:30:01;;;;;;;6.80;6.50;;;;;;;;;;6228455;22;20446;-91
2022/06/02 08:33:10;;;;;;;7.70;7.30;;;26.80;72.00;;;;;;6223260;23;20827;-92
2022/06/02 08:35:45;;;;;;;8.97;8.23;;;25.60;59.00;;;;;;6193633;23;20394;-91
2022/06/02 08:38:36;;;;;;;6.87;6.67;;;25.00;59.90;;;;;;6201151;23;20437;-91
2022/06/02 08:42:00;;;;;;;;;;;;;;;;;;;;;
2022/06/02 08:45:14;;;;;;;7.63;7.33;;;21.80;56.00;;;;;;6233549;23;20378;-93
2022/06/02 08:48:26;;;;;;;7.93;7.50;;;24.10;59.40;;;;;;6229672;23;20440;-92
2022/06/02 08:51:39;;;;;;;7.40;7.10;;;23.80;59.20;;;;;;6224547;23;20427;-94
2022/06/02 08:55:24;;;;;;;8.20;7.80;;;22.50;58.80;;;;;;6221822;23;20382;-92
2022/06/02 08:58:46;;;;;;;8.20;7.80;;;22.00;59.90;;;;;;6217960;23;20785;-92
2022/06/02 09:02:07;;;;;;;6.80;6.50;;;21.70;59.80;;;;;;6223635;23;20450;-92
2022/06/02 09:05:15;;;;;;;6.40;6.27;;;23.10;59.30;;;;;;6227072;23;20418;-89
2022/06/02 09:08:22;;;;;;;7.50;7.10;;;;;;;;;;6221558;23;20390;-93
2022/06/02 09:11:39;;;;;;;6.87;6.67;;;24.60;62.10;;;;;;6217851;23;20453;-92
2022/06/02 09:15:01;;;;;;;6.87;6.67;;;25.80;59.10;;;;;;6217317;23;20392;-94
2022/06/02 09:17:55;;;;;;;6.80;6.60;;;;;;;;;;6223818;23;20513;-93
2022/06/02 09:20:25;;;;;;;5.90;5.80;;;;;;;;;;6199255;23;20409;-87
2022/06/02 09:23:11;;;;;;;4.97;4.87;;;;;;;;;;6223656;23;20548;-93
2022/06/02 09:26:10;;;;;;;6.00;5.90;;;;;;;;;;6224667;23;20389;-86
2022/06/02 09:29:08;;;;;;;6.00;5.60;;;29.70;56.10;;;;;;6221109;23;20433;-94
2022/06/02 09:32:03;;;;;;;5.30;5.20;;;29.90;54.00;;;;;;6232258;23;20455;-90
2022/06/02 09:34:41;;;;;;;5.27;5.10;;;30.40;53.30;;;;;;6219793;23;20366;-88
2022/06/02 09:37:28;;;;;;;5.13;5.03;;;30.90;52.40;;;;;;6189471;23;20429;-89
2022/06/02 09:40:52;;;;;;;6.03;5.83;;;31.40;52.50;;;;;;6215563;23;20405;-89
2022/06/02 09:44:15;;;;;;;5.93;5.80;;;28.90;54.10;;;;;;6217558;23;20394;-88
2022/06/02 09:47:35;;;;;;;5.33;5.13;;;28.10;56.40;;;;;;6219625;23;20391;-91
2022/06/02 09:50:30;;;;;;;4.90;4.90;;;28.50;56.00;;;;;;6220034;23;20661;-88
2022/06/02 09:53:15;;;;;;;5.07;4.97;;;29.50;56.20;;;;;;6216352;23;20374;-91
2022/06/02 09:55:59;;;;;;;5.33;5.23;;;28.60;57.20;;;;;;6190477;23;20390;-92
2022/06/02 10:00:23;;;;;;;6.50;6.30;;;29.30;57.00;;;;;;6229883;23;20430;-91
2022/06/02 10:03:06;;;;;;;5.30;5.20;;;29.20;57.60;;;;;;6199755;23;20390;-89
2022/06/02 10:05:58;;;;;;;5.50;5.33;;;29.30;56.00;;;;;;6212894;23;20398;-89
2022/06/02 10:09:08;;;;;;;5.57;5.40;;;28.20;58.80;;;;;;6227495;23;20397;-90
2022/06/02 10:12:55;;;;;;;5.67;5.57;;;27.20;56.50;;;;;;6220686;23;20470;-90
2022/06/02 10:16:22;;;;;;;6.50;6.10;;;25.90;58.30;;;;;;6220474;23;20401;-89
2022/06/02 10:19:33;;;;;;;5.63;5.53;;;24.70;59.10;;;;;;6222881;23;20417;-90
2022/06/02 10:23:00;;;;;;;5.30;5.30;;;23.80;59.00;;;;;;6222685;23;20809;-90
2022/06/02 10:26:40;;;;;;;6.53;6.33;;;23.60;59.10;;;;;;6224710;23;20398;-93
2022/06/02 10:30:03;;;;;;;6.30;6.10;;;23.60;59.30;;;;;;6226701;23;20490;-89
2022/06/02 10:33:56;;;;;;;5.93;5.73;;;23.40;59.70;;;;;;6234110;23;20386;-88
2022/06/02 10:37:34;;;;;;;6.17;5.90;;;23.60;60.30;;;;;;6234077;23;20400;-91
2022/06/02 10:40:56;;;;;;;5.90;5.70;;;23.50;59.50;;;;;;6221756;23;20777;-89
2022/06/02 10:44:06;;;;;;;6.70;6.30;;;24.20;59.90;;;;;;6220183;23;20390;-92
2022/06/02 10:47:29;;;;;;;7.60;6.83;;;23.70;59.80;;;;;;6229755;23;20450;-89
2022/06/02 10:59:25;;;;;;;7.00;6.70;;;24.30;60.70;;;;;;6265103;23;20439;-87
2022/06/02 11:02:30;;;;;;;7.10;6.90;;;24.50;59.50;;;;;;6253216;23;20397;-91
2022/06/02 11:05:59;;;;;;;5.17;5.07;;;24.40;63.50;;;;;;6257192;23;20922;-92
2022/06/02 11:08:47;;;;;;;5.33;4.90;;;;;;;;;;6255657;23;20402;-85
2022/06/02 11:11:51;;;;;;;4.10;4.00;;;27.10;64.00;;;;;;6263415;23;20386;-90
2022/06/02 11:14:39;;;;;;;4.00;4.00;;;27.20;60.90;;;;;;6253051;23;20585;-90
2022/06/02 11:18:38;;;;;;;4.63;4.53;;;27.00;58.00;;;;;;6251523;23;20516;-90
2022/06/02 11:21:43;;;;;;;3.70;3.60;;;26.60;58.60;;;;;;6247206;23;20393;-89
2022/06/02 11:24:46;;;;;;;3.80;3.80;;;;;;;;;;6219876;23;20936;-90
2022/06/02 11:27:48;;;;;;;3.20;3.20;;;;;;;;;;6250564;23;20473;-91
2022/06/02 11:30:36;;;;;;;3.57;3.57;;;29.20;59.70;;;;;;6253233;22;20443;-93
2022/06/02 11:34:01;;;;;;;3.87;3.43;;;29.60;58.70;;;;;;6257205;23;20385;-93
2022/06/02 11:37:47;;;;;;;4.10;4.00;;;31.20;57.80;;;;;;6237905;23;20429;-91
2022/06/02 11:40:52;;;;;;;3.90;3.90;;;;;;;;;;6267667;22;20385;-94
2022/06/02 11:44:19;;;;;;;3.60;3.50;;;33.00;39.80;;;;;;6267922;22;20412;-89
2022/06/02 11:47:08;;;;;;;3.40;3.40;;;32.60;37.00;;;;;;6260380;23;20440;-91
2022/06/02 11:50:35;;;;;;;3.17;3.17;;;32.90;37.70;;;;;;6259661;23;20432;-92
2022/06/02 11:54:03;;;;;;;3.70;3.60;;;31.70;38.60;;;;;;6253461;23;20711;-91
2022/06/02 11:57:08;;;;;;;4.00;3.90;;;28.50;37.20;;;;;;6254741;23;20449;-88
2022/06/02 12:00:21;;;;;;;3.77;3.73;;;31.40;39.70;;;;;;6249397;23;20390;-87
2022/06/02 12:03:37;;;;;;;4.60;4.50;;;30.70;41.30;;;;;;6255553;23;20858;-90
2022/06/02 12:07:17;;;;;;;5.10;5.00;;;29.80;42.50;;;;;;6256216;23;20398;-91
2022/06/02 12:10:29;;;;;;;5.00;4.90;;;26.90;46.50;;;;;;6129313;23;20393;-92
2022/06/02 12:13:44;;;;;;;4.60;4.40;;;28.00;47.50;;;;;;6137517;23;20851;-89
2022/06/02 12:16:50;;;;;;;4.33;4.30;;;28.00;46.30;;;;;;6234498;23;20378;-88
2022/06/02 12:20:33;;;;;;;4.00;3.90;;;29.90;44.60;;;;;;6261534;23;20397;-91
2022/06/02 12:24:29;;;;;;;3.93;3.93;;;32.40;40.80;;;;;;6268155;23;20397;-88
2022/06/02 12:28:05;;;;;;;3.70;3.70;;;32.40;40.40;;;;;;6206594;23;20426;-90
2022/06/02 12:36:23;;;;;;;3.47;3.47;;;33.10;38.60;;;;;;6154622;22;20428;-91
2022/06/02 12:39:40;;;;;;;3.30;3.30;;;33.90;38.30;;;;;;6265601;23;20389;-90
2022/06/02 12:42:48;;;;;;;3.87;3.77;;;35.30;38.70;;;;;;6260173;23;20372;-90
2022/06/02 12:46:23;;;;;;;4.07;3.90;;;33.00;38.00;;;;;;6266393;23;20365;-93
2022/06/02 12:55:02;;;;;;;3.90;3.90;;;31.10;37.80;;;;;;6213833;22;20440;-90
2022/06/02 13:14:28;;;;;;;3.60;3.50;;;30.90;38.50;;;;;;6241298;22;20485;-92
2022/06/02 13:21:09;;;;;;;2.80;2.80;;;31.90;38.90;;;;;;6264770;22;20400;-89
2022/06/02 13:24:46;;;;;;;2.80;2.80;;;31.40;39.10;;;;;;6264605;23;20397;-91
2022/06/02 13:28:04;;;;;;;3.40;3.20;;;31.80;41.00;;;;;;6259688;23;20461;-90
2022/06/02 13:31:30;;;;;;;2.73;2.73;;;34.30;40.60;;;;;;6253641;22;21376;-90
2022/06/02 13:34:56;;;;;;;2.70;2.70;;;33.00;38.80;;;;;;6254263;23;20393;-91
2022/06/02 13:38:13;;;;;;;3.23;3.13;;;32.20;38.80;;;;;;6256942;23;20398;-92
2022/06/02 13:41:36;;;;;;;3.40;3.23;;;32.30;40.40;;;;;;6131271;23;20409;-92
2022/06/02 13:44:46;;;;;;;2.87;2.87;;;32.80;38.90;;;;;;6249972;23;20408;-90
2022/06/02 13:48:03;;;;;;;2.70;2.60;;;32.20;40.30;;;;;;6248851;23;20752;-92
2022/06/02 13:51:17;;;;;;;3.23;3.23;;;33.70;40.70;;;;;;6247201;23;20449;-91
2022/06/02 13:57:57;;;;;;;3.60;3.50;;;32.90;40.00;;;;;;6247611;23;20457;-89
2022/06/02 14:00:40;;;;;;;5.17;4.93;;;31.00;40.20;;;;;;6244910;23;20464;-92
2022/06/02 14:03:58;;;;;;;3.67;3.57;;;31.40;39.30;;;;;;6248451;23;20393;-91
2022/06/02 14:07:13;;;;;;;3.40;3.30;;;31.50;38.60;;;;;;6250120;23;20416;-90
2022/06/02 14:10:23;;;;;;;3.43;3.23;;;31.60;39.00;;;;;;6256385;23;20382;-93
2022/06/02 14:13:03;;;;;;;3.90;3.80;;;30.40;39.90;;;;;;6258462;23;20373;-92
2022/06/02 14:27:13;;;;;;;2.87;2.87;;;30.20;39.00;;;;;;5133803;27;1297593;-90
2022/06/02 14:30:20;;;;;;;3.60;3.50;;;30.20;32.00;;;;;;5131286;28;20445;-89
2022/06/02 14:33:00;;;;;;;4.37;4.00;;;29.60;32.30;;;;;;5118364;28;20780;-89
2022/06/02 14:35:33;;;;;;;3.00;2.90;;;29.70;32.90;;;;;;5117618;28;20485;-89
2022/06/02 14:38:09;;;;;;;3.20;3.17;;;31.00;33.40;;;;;;5119436;28;20426;-83
2022/06/02 14:40:43;;;;;;;5.87;3.23;;;29.70;32.50;;;;;;5134042;28;20932;-90
2022/06/02 14:43:29;;;;;;;3.53;3.53;;;29.60;32.70;;;;;;5124481;28;20424;-88
2022/06/02 14:46:30;;;;;;;3.43;3.27;;;29.30;32.70;;;;;;5123508;28;20517;-86
2022/06/02 14:49:14;;;;;;;2.93;2.93;;;29.20;33.20;;;;;;5119272;28;20429;-88
2022/06/02 14:51:45;;;;;;;2.93;2.83;;;28.60;33.30;;;;;;5121389;28;20441;-88
2022/06/02 14:54:48;;;;;;;2.83;2.80;;;27.10;34.30;;;;;;5125967;28;20532;-90
2022/06/02 14:57:31;;;;;;;3.47;3.27;;;25.70;34.80;;;;;;5130532;28;20499;-89
2022/06/02 15:00:06;;;;;;;3.70;3.70;;;24.80;35.80;;;;;;5119259;28;20438;-89
2022/06/02 15:03:10;;;;;;;3.07;3.07;;;24.80;38.70;;;;;;5119989;28;20421;-88
2022/06/02 15:05:48;;;;;;;4.27;4.23;;;23.50;36.70;;;;;;5118875;28;20422;-88
2022/06/02 15:08:42;;;;;;;3.67;3.37;;;22.30;36.60;;;;;;5119068;28;20422;-88
2022/06/02 15:12:05;;;;;;;;;;;;;;;;;;;;;
2022/06/02 15:15:17;;;;;;;3.23;3.23;;;23.30;37.80;;;;;;5139924;28;20510;-90
2022/06/02 15:18:20;;;;;;;3.50;3.27;;;22.60;37.20;;;;;;5116561;28;20422;-90
2022/06/02 15:21:56;;;;;;;4.17;4.00;;;23.70;38.00;;;;;;5134485;28;20460;-91
2022/06/02 15:25:12;;;;;;;3.60;3.60;;;22.90;37.80;;;;;;5134221;28;20471;-90
2022/06/02 15:28:09;;;;;;;3.60;3.50;;;22.50;37.70;;;;;;5101276;28;20430;-91
2022/06/02 15:30:41;;;;;;;4.27;4.07;;;23.20;38.40;;;;;;5107341;28;20432;-88
2022/06/02 15:33:15;;;;;;;4.30;4.23;;;23.60;38.40;;;;;;5118880;28;20509;-92
2022/06/02 15:36:32;;;;;;;3.83;3.53;;;24.20;39.50;;;;;;5098684;28;20473;-89
2022/06/02 15:39:59;;;;;;;3.77;3.73;;;22.50;37.80;;;;;;5108402;28;20438;-89
2022/06/02 15:43:07;;;;;;;4.60;4.50;;;24.30;39.50;;;;;;5110190;28;20431;-91
2022/06/02 15:46:20;;;;;;;5.27;4.93;;;23.50;38.80;;;;;;5115811;28;20416;-91
2022/06/02 15:49:28;;;;;;;5.30;5.10;;;22.30;38.60;;;;;;5111846;28;20446;-90
2022/06/02 15:52:21;;;;;;;5.97;5.83;;;22.10;37.70;;;;;;5122618;28;20920;-90
2022/06/02 15:55:47;;;;;;;6.03;5.83;;;22.30;38.50;;;;;;5118033;28;20466;-92
2022/06/02 15:59:11;;;;;;;6.13;5.93;;;22.00;37.80;;;;;;5105392;28;20434;-93
2022/06/02 16:02:06;;;;;;;5.77;5.67;;;22.10;38.20;;;;;;5110800;28;20442;-91
2022/06/02 16:05:33;;;;;;;6.20;5.90;;;22.80;37.70;;;;;;5112980;28;20552;-90
2022/06/02 16:08:43;;;;;;;6.00;5.77;;;21.30;37.10;;;;;;5111848;28;20415;-89
2022/06/02 16:11:48;;;;;;;5.83;5.63;;;22.50;37.50;;;;;;5119045;28;20411;-90
2022/06/02 16:15:14;;;;;;;7.17;6.77;;;22.00;37.10;;;;;;5112467;28;20492;-89
2022/06/02 16:18:21;;;;;;;5.60;5.30;;;21.90;37.90;;;;;;5117765;28;20876;-89
2022/06/02 16:22:01;;;;;;;6.60;6.03;;;22.10;37.80;;;;;;5120877;28;20423;-92
2022/06/02 16:25:03;;;;;;;6.93;6.57;;;22.00;37.90;;;;;;5119110;28;20443;-89
2022/06/02 16:28:07;;;;;;;7.10;6.80;;;22.90;38.20;;;;;;5121434;28;20505;-90
2022/06/02 16:31:15;;;;;;;6.97;6.40;;;22.10;37.80;;;;;;5109995;28;20514;-89
2022/06/02 16:34:44;;;;;;;7.13;6.90;;;25.10;40.90;;;;;;5118109;28;20427;-90
2022/06/02 16:38:14;;;;;;;7.10;6.60;;;22.10;38.70;;;;;;5110354;28;20442;-91
2022/06/02 16:41:51;;;;;;;6.43;6.23;;;21.90;37.90;;;;;;5075447;28;20435;-87
2022/06/02 16:44:44;;;;;;;7.03;6.53;;;22.00;38.30;;;;;;5113436;28;20445;-90
2022/06/02 16:48:00;;;;;;;5.67;5.57;;;21.90;38.10;;;;;;5117247;28;20419;-89
2022/06/02 16:50:58;;;;;;;6.23;6.03;;;21.80;38.20;;;;;;5117591;28;20441;-90
2022/06/02 16:53:54;;;;;;;5.40;5.20;;;21.80;37.90;;;;;;5100592;28;20473;-90
2022/06/02 16:57:04;;;;;;;4.50;4.50;;;22.20;37.80;;;;;;5112570;28;20442;-90
2022/06/02 16:59:58;;;;;;;4.70;4.60;;;19.00;36.30;;;;;;5115512;28;20443;-89
2022/06/02 17:03:02;;;;;;;4.07;4.07;;;23.50;40.10;;;;;;5111868;28;20421;-90
2022/06/02 17:06:26;;;;;;;5.63;5.30;;;23.90;40.20;;;;;;5117945;28;20478;-90
2022/06/02 17:09:20;;;;;;;4.80;4.60;;;22.80;38.20;;;;;;5114954;28;20492;-91
2022/06/02 17:12:15;;;;;;;4.50;4.40;;;21.60;37.30;;;;;;5117969;28;20414;-90
2022/06/02 17:15:28;;;;;;;4.60;4.30;;;20.50;38.10;;;;;;5115767;28;20485;-90